createdAt,value
2019-05-26T00:01:02.495Z,97.70
2019-05-26T00:03:32.061Z,97.80
2019-05-26T00:06:01.572Z,97.10
2019-05-26T00:08:30.881Z,96.80
2019-05-26T00:11:01.650Z,96.70
2019-05-26T00:13:31.499Z,97.40
2019-05-26T00:16:01.128Z,97.70
2019-05-26T00:18:33.375Z,97.80
2019-05-26T00:21:02.412Z,98.30
2019-05-26T00:23:31.561Z,98.50
2019-05-26T00:26:00.870Z,98.40
2019-05-26T00:28:30.190Z,98.50
2019-05-26T00:30:59.985Z,98.60
2019-05-26T00:33:29.347Z,98.50
2019-05-26T00:36:08.212Z,98.50
2019-05-26T00:38:37.396Z,98.00
2019-05-26T00:41:24.594Z,98.30
2019-05-26T00:43:57.023Z,98.40
2019-05-26T00:46:43.815Z,98.30
2019-05-26T00:49:16.557Z,98.50
2019-05-26T00:51:54.599Z,98.70
2019-05-26T00:54:25.092Z,98.80
2019-05-26T00:56:54.951Z,98.70
2019-05-26T00:59:40.799Z,98.60
2019-05-26T01:02:36.737Z,98.50
2019-05-26T01:05:22.456Z,98.40
2019-05-26T01:08:06.104Z,97.90
2019-05-26T01:10:33.619Z,97.60
2019-05-26T01:13:30.161Z,97.80
2019-05-26T01:16:19.706Z,97.70
2019-05-26T01:18:29.007Z,97.50
2019-05-26T01:20:58.420Z,97.60
2019-05-26T01:23:27.589Z,97.90
2019-05-26T01:25:57.484Z,97.50
2019-05-26T01:28:27.959Z,97.40
2019-05-26T01:31:16.842Z,97.60
2019-05-26T01:33:49.866Z,97.30
2019-05-26T01:37:00.306Z,97.10
2019-05-26T01:39:27.204Z,97.10
2019-05-26T01:41:56.323Z,96.90
2019-05-26T01:44:26.276Z,96.60
2019-05-26T01:46:55.667Z,96.70
2019-05-26T01:49:25.504Z,96.80
2019-05-26T01:51:55.350Z,96.80
2019-05-26T01:54:24.546Z,96.50
2019-05-26T01:56:53.799Z,96.50
2019-05-26T01:59:23.563Z,96.30
2019-05-26T02:01:53.239Z,96.10
2019-05-26T02:04:23.160Z,96.00
2019-05-26T02:06:53.291Z,96.10
2019-05-26T02:09:22.541Z,96.00
2019-05-26T02:11:52.550Z,96.30
2019-05-26T02:14:22.322Z,95.80
2019-05-26T02:16:52.319Z,95.70
2019-05-26T02:19:22.318Z,95.40
2019-05-26T02:21:52.508Z,95.20
2019-05-26T02:24:21.959Z,94.90
2019-05-26T02:26:51.580Z,94.90
2019-05-26T02:29:20.858Z,95.10
2019-05-26T02:31:50.693Z,95.40
2019-05-26T02:34:19.970Z,95.40
2019-05-26T02:36:49.169Z,95.10
2019-05-26T02:39:18.324Z,94.90
2019-05-26T02:41:48.049Z,95.00
2019-05-26T02:44:17.295Z,94.90
2019-05-26T02:46:48.542Z,94.50
2019-05-26T02:49:18.020Z,94.60
2019-05-26T02:51:47.562Z,95.00
2019-05-26T02:54:17.193Z,94.70
2019-05-26T02:56:49.137Z,94.70
2019-05-26T02:59:18.680Z,94.90
2019-05-26T03:02:02.206Z,94.90
2019-05-26T03:04:19.606Z,94.90
2019-05-26T03:06:50.382Z,95.10
2019-05-26T03:09:23.513Z,94.80
2019-05-26T03:11:54.859Z,94.80
2019-05-26T03:14:27.301Z,94.60
2019-05-26T03:17:00.623Z,94.80
2019-05-26T03:19:32.073Z,95.00
2019-05-26T03:22:04.924Z,94.80
2019-05-26T03:24:34.399Z,94.40
2019-05-26T03:27:09.191Z,94.70
2019-05-26T03:29:40.666Z,94.90
2019-05-26T03:32:12.588Z,95.20
2019-05-26T03:34:48.143Z,95.20
2019-05-26T03:37:20.186Z,95.00
2019-05-26T03:39:54.982Z,94.60
2019-05-26T03:42:26.309Z,94.50
2019-05-26T03:44:55.793Z,94.60
2019-05-26T03:47:27.490Z,94.60
2019-05-26T03:50:00.074Z,94.30
2019-05-26T03:52:38.495Z,94.40
2019-05-26T03:55:10.184Z,94.40
2019-05-26T03:57:41.026Z,94.00
2019-05-26T04:00:16.029Z,94.00
2019-05-26T04:02:50.421Z,94.10
2019-05-26T04:05:20.106Z,93.90
2019-05-26T04:07:50.781Z,93.60
2019-05-26T04:10:22.447Z,93.90
2019-05-26T04:12:52.036Z,94.10
2019-05-26T04:15:21.521Z,93.60
2019-05-26T04:17:50.994Z,93.80
2019-05-26T04:20:20.466Z,93.80
2019-05-26T04:22:50.318Z,93.80
2019-05-26T04:25:19.446Z,93.90
2019-05-26T04:27:48.962Z,94.10
2019-05-26T04:30:18.613Z,94.00
2019-05-26T04:32:50.284Z,94.00
2019-05-26T04:35:19.818Z,93.80
2019-05-26T04:37:49.605Z,93.60
2019-05-26T04:40:27.878Z,93.80
2019-05-26T04:42:50.296Z,93.80
2019-05-26T04:45:20.223Z,93.70
2019-05-26T04:47:51.046Z,93.70
2019-05-26T04:50:20.721Z,93.20
2019-05-26T04:53:05.410Z,93.60
2019-05-26T04:55:31.001Z,93.70
2019-05-26T04:58:03.667Z,93.70
2019-05-26T05:00:35.009Z,93.30
2019-05-26T05:03:06.865Z,93.40
2019-05-26T05:05:38.106Z,93.30
2019-05-26T05:08:08.358Z,93.20
2019-05-26T05:10:42.407Z,93.00
2019-05-26T05:13:10.199Z,92.90
2019-05-26T05:15:40.820Z,92.90
2019-05-26T05:18:10.236Z,92.70
2019-05-26T05:20:39.981Z,92.70
2019-05-26T05:23:12.456Z,92.60
2019-05-26T05:25:45.200Z,92.60
2019-05-26T05:28:14.961Z,93.10
2019-05-26T05:30:44.962Z,93.10
2019-05-26T05:33:14.605Z,92.90
2019-05-26T05:35:44.755Z,92.40
2019-05-26T05:38:14.522Z,92.40
2019-05-26T05:40:58.766Z,92.40
2019-05-26T05:43:19.312Z,92.40
2019-05-26T05:46:07.746Z,92.40
2019-05-26T05:48:37.110Z,92.40
2019-05-26T05:51:06.658Z,92.50
2019-05-26T05:53:36.155Z,92.60
2019-05-26T05:56:06.789Z,92.40
2019-05-26T05:58:37.200Z,92.20
2019-05-26T06:01:07.647Z,92.10
2019-05-26T06:03:38.994Z,92.30
2019-05-26T06:06:08.950Z,91.60
2019-05-26T06:08:40.566Z,91.80
2019-05-26T06:11:16.671Z,92.00
2019-05-26T06:13:41.493Z,92.10
2019-05-26T06:16:12.933Z,91.50
2019-05-26T06:18:42.946Z,91.30
2019-05-26T06:21:13.066Z,91.60
2019-05-26T06:23:45.965Z,91.70
2019-05-26T06:26:16.801Z,91.90
2019-05-26T06:28:46.417Z,91.70
2019-05-26T06:31:16.727Z,91.40
2019-05-26T06:33:49.324Z,91.50
2019-05-26T06:36:19.539Z,91.10
2019-05-26T06:38:49.478Z,90.60
2019-05-26T06:41:32.779Z,90.80
2019-05-26T06:43:56.675Z,90.70
2019-05-26T06:46:27.830Z,90.70
2019-05-26T06:48:58.072Z,90.70
2019-05-26T06:51:30.855Z,90.20
2019-05-26T06:54:01.764Z,90.50
2019-05-26T06:56:32.486Z,89.50
2019-05-26T06:59:04.237Z,88.40
2019-05-26T07:01:35.090Z,88.80
2019-05-26T07:04:05.009Z,87.50
2019-05-26T07:06:36.110Z,87.30
2019-05-26T07:09:07.228Z,88.30
2019-05-26T07:11:55.767Z,87.50
2019-05-26T07:14:15.290Z,86.80
2019-05-26T07:16:45.178Z,86.70
2019-05-26T07:19:14.289Z,87.20
2019-05-26T07:21:44.421Z,86.00
2019-05-26T07:24:14.087Z,85.80
2019-05-26T07:26:43.869Z,85.70
2019-05-26T07:29:16.695Z,84.80
2019-05-26T07:31:46.266Z,83.30
2019-05-26T07:34:18.539Z,82.70
2019-05-26T07:36:48.275Z,82.50
2019-05-26T07:39:19.973Z,82.70
2019-05-26T07:42:08.307Z,82.80
2019-05-26T07:44:21.234Z,83.20
2019-05-26T07:46:51.180Z,83.20
2019-05-26T07:49:21.546Z,83.60
2019-05-26T07:51:51.958Z,83.80
2019-05-26T07:54:25.696Z,83.90
2019-05-26T07:56:57.109Z,83.70
2019-05-26T07:59:30.519Z,82.10
2019-05-26T08:02:02.113Z,82.20
2019-05-26T08:04:35.260Z,81.40
2019-05-26T08:07:04.978Z,80.60
2019-05-26T08:09:35.197Z,80.60
2019-05-26T08:12:06.491Z,79.40
2019-05-26T08:14:37.429Z,77.40
2019-05-26T08:17:07.081Z,76.90
2019-05-26T08:19:39.264Z,76.50
2019-05-26T08:22:09.930Z,76.80
2019-05-26T08:24:39.734Z,77.80
2019-05-26T08:27:12.950Z,78.30
2019-05-26T08:29:50.424Z,78.50
2019-05-26T08:32:27.403Z,76.20
2019-05-26T08:35:02.815Z,75.20
2019-05-26T08:37:31.282Z,74.60
2019-05-26T08:40:18.466Z,73.40
2019-05-26T08:42:49.633Z,73.70
2019-05-26T08:45:22.122Z,72.90
2019-05-26T08:47:54.641Z,71.60
2019-05-26T08:50:24.823Z,68.70
2019-05-26T08:52:56.514Z,68.50
2019-05-26T08:55:26.175Z,68.20
2019-05-26T08:57:56.194Z,67.80
2019-05-26T09:00:26.329Z,68.80
2019-05-26T09:02:57.918Z,69.30
2019-05-26T09:05:31.134Z,71.70
2019-05-26T09:08:07.956Z,70.20
2019-05-26T09:10:36.211Z,70.00
2019-05-26T09:13:06.234Z,70.10
2019-05-26T09:15:37.338Z,71.30
2019-05-26T09:18:07.046Z,70.40
2019-05-26T09:20:35.272Z,69.60
2019-05-26T09:23:03.632Z,68.40
2019-05-26T09:25:32.240Z,67.30
2019-05-26T09:28:02.487Z,65.60
2019-05-26T09:30:30.582Z,64.20
2019-05-26T09:32:59.699Z,63.00
2019-05-26T09:35:29.612Z,63.40
2019-05-26T09:38:17.481Z,62.30
2019-05-26T09:40:46.824Z,61.20
2019-05-26T09:43:16.698Z,59.70
2019-05-26T09:45:46.094Z,57.70
2019-05-26T09:48:16.743Z,58.90
2019-05-26T09:50:44.889Z,59.00
2019-05-26T09:53:13.258Z,54.80
2019-05-26T09:55:41.714Z,56.50
2019-05-26T09:58:10.389Z,56.10
2019-05-26T10:00:47.132Z,52.40
2019-05-26T10:03:15.789Z,51.80
2019-05-26T10:05:45.835Z,51.50
2019-05-26T10:08:18.156Z,51.40
2019-05-26T10:10:46.825Z,49.00
2019-05-26T10:13:30.839Z,51.80
2019-05-26T10:15:46.844Z,52.20
2019-05-26T10:18:18.717Z,53.40
2019-05-26T10:20:49.881Z,49.00
2019-05-26T10:23:18.649Z,46.30
2019-05-26T10:25:48.378Z,41.40
2019-05-26T10:28:20.597Z,42.20
2019-05-26T10:30:51.014Z,42.30
2019-05-26T10:33:19.269Z,45.60
2019-05-26T10:35:47.471Z,46.60
2019-05-26T10:38:15.880Z,50.40
2019-05-26T10:40:44.425Z,51.80
2019-05-26T10:43:12.724Z,52.60
2019-05-26T10:45:41.251Z,53.10
2019-05-26T10:48:09.326Z,52.50
2019-05-26T10:50:40.793Z,53.70
2019-05-26T10:53:10.913Z,55.60
2019-05-26T10:55:42.562Z,54.20
2019-05-26T10:58:11.730Z,54.40
2019-05-26T11:00:41.282Z,53.70
2019-05-26T11:03:10.890Z,54.10
2019-05-26T11:05:41.382Z,55.30
2019-05-26T11:08:11.751Z,54.50
2019-05-26T11:10:42.575Z,54.20
2019-05-26T11:13:12.215Z,55.50
2019-05-26T11:15:41.365Z,56.50
2019-05-26T11:18:11.179Z,57.10
2019-05-26T11:20:42.698Z,56.80
2019-05-26T11:23:12.416Z,56.90
2019-05-26T11:25:44.545Z,55.70
2019-05-26T11:28:13.978Z,55.40
2019-05-26T11:30:43.670Z,54.90
2019-05-26T11:33:12.939Z,53.80
2019-05-26T11:35:42.341Z,54.90
2019-05-26T11:38:11.521Z,53.80
2019-05-26T11:40:42.133Z,52.70
2019-05-26T11:43:16.735Z,53.30
2019-05-26T11:45:40.903Z,53.10
2019-05-26T11:48:09.570Z,53.40
2019-05-26T11:50:38.263Z,54.10
2019-05-26T11:53:07.166Z,54.10
2019-05-26T11:55:38.119Z,54.50
2019-05-26T11:58:07.324Z,55.00
2019-05-26T12:00:36.858Z,55.50
2019-05-26T12:03:09.603Z,55.00
2019-05-26T12:05:40.719Z,54.40
2019-05-26T12:08:11.726Z,54.00
2019-05-26T12:10:41.237Z,52.10
2019-05-26T12:13:11.238Z,52.50
2019-05-26T12:15:42.649Z,52.60
2019-05-26T12:18:12.242Z,52.80
2019-05-26T12:20:42.357Z,53.00
2019-05-26T12:23:13.052Z,51.40
2019-05-26T12:25:42.966Z,50.10
2019-05-26T12:28:13.201Z,50.50
2019-05-26T12:30:45.788Z,52.40
2019-05-26T12:33:15.509Z,53.80
2019-05-26T12:35:48.049Z,54.20
2019-05-26T12:38:20.586Z,54.20
2019-05-26T12:40:50.008Z,53.10
2019-05-26T12:43:19.547Z,53.50
2019-05-26T12:45:50.177Z,53.10
2019-05-26T12:48:19.524Z,51.80
2019-05-26T12:50:50.178Z,51.90
2019-05-26T12:53:19.727Z,53.50
2019-05-26T12:55:52.575Z,53.80
2019-05-26T12:58:25.789Z,53.60
2019-05-26T13:00:55.973Z,53.20
2019-05-26T13:03:25.522Z,52.50
2019-05-26T13:05:59.235Z,52.10
2019-05-26T13:08:29.162Z,53.30
2019-05-26T13:11:08.006Z,52.00
2019-05-26T13:13:39.809Z,52.50
2019-05-26T13:16:09.810Z,52.40
2019-05-26T13:18:43.887Z,52.50
2019-05-26T13:21:14.505Z,51.40
2019-05-26T13:23:49.231Z,52.00
2019-05-26T13:26:17.859Z,53.00
2019-05-26T13:28:50.018Z,53.30
2019-05-26T13:31:19.329Z,53.00
2019-05-26T13:33:49.443Z,51.60
2019-05-26T13:36:19.917Z,52.80
2019-05-26T13:38:49.175Z,51.70
2019-05-26T13:41:19.913Z,52.10
2019-05-26T13:43:49.098Z,51.00
2019-05-26T13:46:20.617Z,51.10
2019-05-26T13:48:50.953Z,51.60
2019-05-26T13:51:22.427Z,52.00
2019-05-26T13:53:52.801Z,52.20
2019-05-26T13:56:21.972Z,52.20
2019-05-26T13:58:51.503Z,51.90
2019-05-26T14:01:20.913Z,52.70
2019-05-26T14:03:50.196Z,51.80
2019-05-26T14:06:20.251Z,52.00
2019-05-26T14:08:50.272Z,52.30
2019-05-26T14:11:20.354Z,52.20
2019-05-26T14:13:49.466Z,52.00
2019-05-26T14:16:20.206Z,53.10
2019-05-26T14:18:50.634Z,52.90
2019-05-26T14:21:20.209Z,53.10
2019-05-26T14:23:55.575Z,53.50
2019-05-26T14:26:32.291Z,54.00
2019-05-26T14:29:02.816Z,53.90
2019-05-26T14:31:33.686Z,53.90
2019-05-26T14:34:03.766Z,54.70
2019-05-26T14:36:33.394Z,54.40
2019-05-26T14:39:04.166Z,54.00
2019-05-26T14:41:33.767Z,54.00
2019-05-26T14:44:03.438Z,53.60
2019-05-26T14:46:33.293Z,53.70
2019-05-26T14:49:01.965Z,53.20
2019-05-26T14:51:30.770Z,53.10
2019-05-26T14:53:59.586Z,52.50
2019-05-26T14:56:29.860Z,52.60
2019-05-26T14:59:02.131Z,54.00
2019-05-26T15:01:31.928Z,54.00
2019-05-26T15:04:01.323Z,53.70
2019-05-26T15:06:32.316Z,54.00
2019-05-26T15:09:02.221Z,54.20
2019-05-26T15:11:31.622Z,55.00
2019-05-26T15:14:01.767Z,54.20
2019-05-26T15:16:31.348Z,52.70
2019-05-26T15:19:00.886Z,53.40
2019-05-26T15:21:31.178Z,53.80
2019-05-26T15:24:01.950Z,54.40
2019-05-26T15:26:31.464Z,55.20
2019-05-26T15:29:01.375Z,53.80
2019-05-26T15:31:30.878Z,54.30
2019-05-26T15:34:00.579Z,55.00
2019-05-26T15:36:30.294Z,54.80
2019-05-26T15:39:02.192Z,55.50
2019-05-26T15:41:39.618Z,55.90
2019-05-26T15:44:09.302Z,54.30
2019-05-26T15:46:39.271Z,54.70
2019-05-26T15:49:08.881Z,53.60
2019-05-26T15:51:39.407Z,54.80
2019-05-26T15:54:10.611Z,53.90
2019-05-26T15:56:46.630Z,54.20
2019-05-26T15:59:17.513Z,55.00
2019-05-26T16:01:50.226Z,55.50
2019-05-26T16:04:21.821Z,55.40
2019-05-26T16:06:54.683Z,54.70
2019-05-26T16:09:29.168Z,54.20
2019-05-26T16:12:04.169Z,54.70
2019-05-26T16:14:39.555Z,54.20
2019-05-26T16:17:20.602Z,53.80
2019-05-26T16:19:51.505Z,54.00
2019-05-26T16:22:25.783Z,54.00
2019-05-26T16:24:55.744Z,53.40
2019-05-26T16:27:31.080Z,53.80
2019-05-26T16:30:05.241Z,54.20
2019-05-26T16:32:38.208Z,54.00
2019-05-26T16:35:14.211Z,54.30
2019-05-26T16:37:47.921Z,54.70
2019-05-26T16:40:18.972Z,55.10
2019-05-26T16:42:50.324Z,55.30
2019-05-26T16:45:20.951Z,55.50
2019-05-26T16:47:51.919Z,55.40
2019-05-26T16:50:24.219Z,55.60
2019-05-26T16:52:54.731Z,55.70
2019-05-26T16:55:25.661Z,57.00
2019-05-26T16:57:55.434Z,57.40
2019-05-26T17:00:24.762Z,57.20
2019-05-26T17:02:54.873Z,57.30
2019-05-26T17:05:24.764Z,57.50
2019-05-26T17:07:56.333Z,57.20
2019-05-26T17:10:32.354Z,57.60
2019-05-26T17:13:01.802Z,57.60
2019-05-26T17:15:33.958Z,57.10
2019-05-26T17:18:03.171Z,57.40
2019-05-26T17:20:33.068Z,58.30
2019-05-26T17:23:03.213Z,59.70
2019-05-26T17:25:35.248Z,57.90
2019-05-26T17:28:12.023Z,57.80
2019-05-26T17:30:50.985Z,58.20
2019-05-26T17:33:37.225Z,58.30
2019-05-26T17:36:09.372Z,58.10
2019-05-26T17:38:41.550Z,57.90
2019-05-26T17:41:19.096Z,58.50
2019-05-26T17:43:49.167Z,58.40
2019-05-26T17:46:21.609Z,58.60
2019-05-26T17:48:54.231Z,59.40
2019-05-26T17:51:34.897Z,59.60
2019-05-26T17:54:09.050Z,59.60
2019-05-26T17:56:40.151Z,59.50
2019-05-26T17:59:11.569Z,59.80
2019-05-26T18:01:41.091Z,60.70
2019-05-26T18:04:09.514Z,60.90
2019-05-26T18:06:37.831Z,62.10
2019-05-26T18:09:06.585Z,61.70
2019-05-26T18:11:38.168Z,62.20
2019-05-26T18:14:06.578Z,62.90
2019-05-26T18:16:38.235Z,62.40
2019-05-26T18:21:57.405Z,62.80
2019-05-26T18:24:26.399Z,63.00
2019-05-26T18:26:54.724Z,63.30
2019-05-26T18:29:29.780Z,63.30
2019-05-26T18:31:58.031Z,63.30
2019-05-26T18:34:27.716Z,63.30
2019-05-26T18:36:57.099Z,63.30
2019-05-26T18:39:28.798Z,63.30
2019-05-26T18:41:58.420Z,63.30
2019-05-26T18:44:27.478Z,63.30
2019-05-26T18:46:56.861Z,63.30
2019-05-26T18:49:29.192Z,63.50
2019-05-26T18:51:58.866Z,63.90
2019-05-26T18:54:35.888Z,64.20
2019-05-26T18:57:15.461Z,64.40
2019-05-26T18:59:55.214Z,64.40
2019-05-26T19:02:32.590Z,64.00
2019-05-26T19:05:09.594Z,63.90
2019-05-26T19:07:39.419Z,64.30
2019-05-26T19:10:10.704Z,64.00
2019-05-26T19:12:46.981Z,63.30
2019-05-26T19:15:16.064Z,63.80
2019-05-26T19:17:45.737Z,64.20
2019-05-26T19:20:17.378Z,64.20
2019-05-26T19:22:47.776Z,64.40
2019-05-26T19:25:17.256Z,64.60
2019-05-26T19:27:48.576Z,64.50
2019-05-26T19:30:27.627Z,64.70
2019-05-26T19:32:57.238Z,65.00
2019-05-26T19:35:43.002Z,65.10
2019-05-26T19:38:15.320Z,65.30
2019-05-26T19:40:52.049Z,65.50
2019-05-26T19:43:22.446Z,65.60
2019-05-26T19:45:53.718Z,66.60
2019-05-26T19:48:37.200Z,66.10
2019-05-26T19:51:02.217Z,66.20
2019-05-26T19:53:49.671Z,66.30
2019-05-26T19:56:19.349Z,65.90
2019-05-26T19:58:49.377Z,66.30
2019-05-26T20:01:18.899Z,66.70
2019-05-26T20:03:48.407Z,67.00
2019-05-26T20:06:17.999Z,67.30
2019-05-26T20:08:49.886Z,67.60
2019-05-26T20:11:21.666Z,68.00
2019-05-26T20:13:51.412Z,68.30
2019-05-26T20:16:20.812Z,68.60
2019-05-26T20:18:53.234Z,69.30
2019-05-26T20:21:23.666Z,68.80
2019-05-26T20:23:55.306Z,69.20
2019-05-26T20:26:24.399Z,69.50
2019-05-26T20:28:55.569Z,69.60
2019-05-26T20:31:25.526Z,70.10
2019-05-26T20:33:56.202Z,70.60
2019-05-26T20:36:26.172Z,71.00
2019-05-26T20:38:56.832Z,71.30
2019-05-26T20:41:26.605Z,71.60
2019-05-26T20:43:56.122Z,71.70
2019-05-26T20:46:26.475Z,71.90
2019-05-26T20:48:56.363Z,71.90
2019-05-26T20:51:25.978Z,72.00
2019-05-26T20:53:55.652Z,71.90
2019-05-26T20:56:26.346Z,72.70
2019-05-26T20:58:55.862Z,71.80
2019-05-26T21:01:51.330Z,71.90
2019-05-26T21:04:20.994Z,71.90
2019-05-26T21:06:51.241Z,72.10
2019-05-26T21:09:20.843Z,72.40
2019-05-26T21:11:50.212Z,72.50
2019-05-26T21:14:19.765Z,72.40
2019-05-26T21:16:50.289Z,72.70
2019-05-26T21:19:20.515Z,72.90
2019-05-26T21:21:49.833Z,72.90
2019-05-26T21:24:25.244Z,73.10
2019-05-26T21:26:55.161Z,73.00
2019-05-26T21:29:24.668Z,73.10
2019-05-26T21:31:56.604Z,73.00
2019-05-26T21:34:28.715Z,73.00
2019-05-26T21:37:03.288Z,73.60
2019-05-26T21:39:34.566Z,73.30
2019-05-26T21:42:04.060Z,73.70
2019-05-26T21:44:34.314Z,73.00
2019-05-26T21:47:03.720Z,73.70
2019-05-26T21:49:33.596Z,74.00
2019-05-26T21:52:03.577Z,74.40
2019-05-26T21:54:31.983Z,74.60
2019-05-26T21:57:00.891Z,74.80
2019-05-26T21:59:29.526Z,74.90
2019-05-26T22:01:58.663Z,75.40
2019-05-26T22:04:27.938Z,75.30
2019-05-26T22:06:57.426Z,75.30
2019-05-26T22:09:29.201Z,75.70
2019-05-26T22:11:58.690Z,75.50
2019-05-26T22:14:28.120Z,75.70
2019-05-26T22:16:57.379Z,75.60
2019-05-26T22:19:26.867Z,76.40
2019-05-26T22:21:58.092Z,75.90
2019-05-26T22:24:27.509Z,76.40
2019-05-26T22:26:57.325Z,76.30
2019-05-26T22:29:36.615Z,76.40
2019-05-26T22:32:07.352Z,76.20
2019-05-26T22:34:36.790Z,76.50
2019-05-26T22:37:06.359Z,76.60
2019-05-26T22:39:35.982Z,77.00
2019-05-26T22:42:05.692Z,77.00
2019-05-26T22:44:36.409Z,77.30
2019-05-26T22:47:06.520Z,77.60
2019-05-26T22:49:36.193Z,77.70
2019-05-26T22:52:05.449Z,77.90
2019-05-26T22:54:35.255Z,78.00
2019-05-26T22:57:04.755Z,78.00
2019-05-26T22:59:34.328Z,78.30
2019-05-26T23:02:03.786Z,78.40
2019-05-26T23:04:33.172Z,78.00
2019-05-26T23:07:02.492Z,78.00
2019-05-26T23:09:33.631Z,78.20
2019-05-26T23:12:01.720Z,78.10
2019-05-26T23:14:31.031Z,77.70
2019-05-26T23:17:02.001Z,76.90
2019-05-26T23:19:31.354Z,76.70
2019-05-26T23:22:04.562Z,76.90
2019-05-26T23:24:33.895Z,76.80
2019-05-26T23:27:03.737Z,76.90
2019-05-26T23:29:33.386Z,76.70
2019-05-26T23:32:03.956Z,76.70
2019-05-26T23:34:33.976Z,76.60
2019-05-26T23:37:03.372Z,76.70
2019-05-26T23:39:32.484Z,76.80
2019-05-26T23:42:02.769Z,77.40
2019-05-26T23:44:32.231Z,77.50
2019-05-26T23:47:01.634Z,77.60
2019-05-26T23:49:31.309Z,77.90
2019-05-26T23:52:00.544Z,78.00
2019-05-26T23:54:29.723Z,79.40
2019-05-26T23:56:59.670Z,79.20
2019-05-26T23:59:29.073Z,79.00
